KIKV Airport (Ankeny Rgnl) Information

FAA: IKV - ICAO: KIKV

KIKV Airport Location

State Iowa
County Polk
City Ankeny
KIKV Airport is 1 miles southeast of Ankeny, IA.
Latitude 41-41-28.8485N
Longitude 093-33-58.8569W
Elevation 909ft

KIKV Airport METARs

METAR KIKV 302215Z AUTO 14012KT 10SM CLR 22/07 A3011 RMK AO2
Altimeter 30.11"
Temperature 22.0°C (71.6°F)
Wind 140° at 12KT
Clouds Skies are clear.
Visibility 10.0mi
Time observed: 2022-09-30T22:15:00Z

KIKV Airport Details

Status Operational
Activation February 1994
Ownership Public
Usage Public
Chart OMAHA
ATC on-site No
Beacon schedule sunset-sunrise
Beacon color clear green

KIKV Airport Contacts

Owner POLK COUNTY AVIATION AUTH
Owner address 410 WEST 1ST STREET, ANKENY, IA 50021
Owner phone 515-965-6400
Manager DALE BRASS
Manager address 1204 BUTLER STREET, ACKLEY, IA 50601
Manager phone 641-847-3395

KIKV Airport (Ankeny Rgnl) Radio Frequencies

KIKV (Airport) Radio Frequencies

UNICOM N/A
Common traffic advisory frequency (CTAF) 122.9